Flight Track Log - Related Links

Times and Time Zones

All times are in EDT time to prevent confusion due to time zone crossing. See the ANE8022 flight status page for this flight to view local times or setup timezone preferences in your user account.

Time Position Orientation Groundspeed Altitude Reporting Facility
EDT Latitude Longitude Course Direction KTS MPH feet Rate Location/Type
Tue 05:01:00 PM 39.9560 -3.7043 191° South  Level Estimated
Tue 05:02:00 PM 39.9022 -3.7180 191° South  Level Estimated
Tue 05:03:00 PM 39.8484 -3.7316 191° South  Level Estimated
Tue 05:04:00 PM 39.7947 -3.7452 191° South  Level Estimated
Tue 05:05:00 PM 39.7409 -3.7587 191° South  Level Estimated
Tue 05:06:00 PM 39.6871 -3.7723 191° South  Level Estimated
Tue 05:07:00 PM 39.6333 -3.7858 191° South  Level Estimated
Tue 05:08:00 PM 39.5795 -3.7993 191° South  Level Estimated
Tue 05:09:00 PM 39.5258 -3.8128 191° South  Level Estimated
Tue 05:10:00 PM 39.4720 -3.8263 191° South  Level Estimated
Tue 05:11:00 PM 39.4182 -3.8397 191° South  Level Estimated
Tue 05:12:00 PM 39.3644 -3.8532 191° South  Level Estimated
Tue 05:13:00 PM 39.3106 -3.8666 191° South  Level Estimated
Tue 05:14:00 PM 39.2568 -3.8799 191° South  Level Estimated
Tue 05:15:00 PM 39.2030 -3.8933 191° South  Level Estimated
Tue 05:16:00 PM 39.1493 -3.9066 191° South  Level Estimated
Tue 05:17:00 PM 39.0955 -3.9200 191° South  Level Estimated
Tue 05:18:00 PM 39.0417 -3.9333 191° South  Level Estimated
Tue 05:19:00 PM 38.9879 -3.9465 191° South  Level Estimated
Tue 05:20:00 PM 38.9341 -3.9598 191° South  Level Estimated
Tue 05:21:00 PM 38.8803 -3.9730 191° South  Level Estimated
Tue 05:22:00 PM 38.8265 -3.9863 191° South  Level Estimated
Tue 05:23:00 PM 38.7727 -3.9995 191° South  Level Estimated
Tue 05:24:00 PM 38.7189 -4.0126 191° South  Level Estimated
Tue 05:25:00 PM 38.6651 -4.0258 191° South  Level Estimated
Tue 05:26:00 PM 38.6113 -4.0389 191° South  Level Estimated
Tue 05:27:00 PM 38.5575 -4.0521 191° South  Level Estimated
Tue 05:28:00 PM 38.5037 -4.0652 191° South  Level Estimated
Tue 05:29:00 PM 38.4498 -4.0782 191° South  Level Estimated
Tue 05:30:00 PM 38.3960 -4.0913 191° South  Level Estimated
Tue 05:31:00 PM 38.3422 -4.1044 191° South  Level Estimated
Tue 05:32:00 PM 38.2884 -4.1174 191° South  Level Estimated
Tue 05:33:00 PM 38.2346 -4.1304 191° South  Level Estimated
Tue 05:34:00 PM 38.1808 -4.1434 191° South  Level Estimated
Tue 05:35:00 PM 38.1269 -4.1564 191° South  Level Estimated
Tue 05:36:00 PM 38.0731 -4.1693 191° South  Level Estimated
Tue 05:37:00 PM 38.0193 -4.1822 191° South  Level Estimated
Tue 05:38:00 PM 37.9655 -4.1951 191° South  Level Estimated
Tue 05:39:00 PM 37.9117 -4.2080 191° South  Level Estimated
Tue 05:40:00 PM 37.8578 -4.2209 191° South  Level Estimated
Tue 05:41:00 PM 37.8040 -4.2337 191° South  Level Estimated
Tue 05:42:00 PM 37.7502 -4.2466 191° South  Level Estimated
Tue 05:43:00 PM 37.6964 -4.2594 191° South  Level Estimated
Tue 05:44:00 PM 37.6425 -4.2722 191° South  Level Estimated
Tue 05:45:00 PM 37.5887 -4.2850 191° South  Level Estimated
Tue 05:46:00 PM 37.5349 -4.2977 191° South  Level Estimated
Tue 05:47:00 PM 37.4810 -4.3105 191° South  Level Estimated
Tue 05:48:00 PM 37.4272 -4.3232 191° South  Level Estimated
Tue 05:49:00 PM 37.3733 -4.3359 191° South  Level Estimated
Tue 05:50:00 PM 37.3195 -4.3486 191° South  Level Estimated
Tue 05:51:00 PM 37.2657 -4.3613 191° South  Level Estimated
Tue 05:52:00 PM 37.2118 -4.3739 191° South  Level Estimated
Tue 05:53:00 PM 37.1580 -4.3866 191° South  Level Estimated
Tue 05:54:00 PM 37.1041 -4.3992 191° South  Level Estimated
Tue 05:55:00 PM 37.0503 -4.4118 191° South  Level Estimated
Tue 05:56:00 PM 36.9964 -4.4244 191° South  Level Estimated
Tue 05:57:00 PM 36.9426 -4.4369 191° South  Level Estimated
Tue 05:58:00 PM 36.8887 -4.4495 191° South  Level Estimated
Tue 05:59:00 PM 36.8349 -4.4620 191° South  Level Estimated
Tue 06:00:00 PM 36.7810 -4.4745 191° South  Level Estimated
Tue 06:01:00 PM 36.7272 -4.4870 191° South  Level Estimated
Tue 06:02:00 PM 36.6749 -4.4991 191° South  Level Estimated
Tue 06:03:00 PM 36.6749 -4.4991 90° East  Level Estimated
Tue 06:04:00 PM 36.6749 -4.4991 90° East  Level Estimated
Tue 06:05:00 PM 36.6749 -4.4991 90° East  Level Estimated
Tue 06:06:00 PM 36.6749 -4.4991 90° East  Level Estimated
Tue 06:07:00 PM 36.6749 -4.4991 90° East  Level Estimated
Tue 06:08:00 PM 36.6749 -4.4991 90° East  Level Estimated
Tue 06:09:00 PM 36.6749 -4.4991 90° East  Level Estimated

Login

Don't have an account? Register now (free) for customized features, flight alerts, and more!